createdAt,value
2019-03-26T12:24:04.776Z,3.90
2019-03-26T12:25:04.695Z,4.60
2019-03-26T12:26:57.496Z,4.70
2019-03-26T12:27:57.429Z,4.70
2019-03-26T12:29:50.233Z,4.10
2019-03-26T12:30:50.154Z,4.10
2019-03-26T12:32:42.970Z,4.60
2019-03-26T12:33:42.896Z,4.50
2019-03-26T12:35:35.697Z,4.60
2019-03-26T12:36:40.288Z,4.90
2019-03-26T12:38:28.630Z,4.30
2019-03-26T12:39:28.551Z,4.30
2019-03-26T12:41:21.357Z,4.40
2019-03-26T12:42:21.341Z,4.20
2019-03-26T12:44:15.158Z,4.30
2019-03-26T12:45:15.077Z,4.20
2019-03-26T12:47:08.201Z,4.20
2019-03-26T12:48:07.824Z,4.30
2019-03-26T12:50:01.891Z,3.90
2019-03-26T12:51:01.587Z,4.00
2019-03-26T12:52:54.480Z,4.10
2019-03-26T12:53:54.337Z,3.60
2019-03-26T12:55:47.154Z,3.00
2019-03-26T12:56:47.120Z,3.10
2019-03-26T12:58:39.883Z,2.90
2019-03-26T12:59:39.833Z,4.00
2019-03-26T13:01:33.665Z,3.40
2019-03-26T13:02:35.843Z,3.60
2019-03-26T13:04:26.353Z,3.30
2019-03-26T13:05:26.314Z,3.10
2019-03-26T13:07:19.154Z,3.30
2019-03-26T13:08:19.073Z,3.10
2019-03-26T13:10:13.762Z,3.20
2019-03-26T13:11:11.792Z,3.50
2019-03-26T13:13:04.612Z,2.90
2019-03-26T13:14:04.575Z,3.50
2019-03-26T13:15:57.561Z,3.40
2019-03-26T13:16:57.489Z,3.20
2019-03-26T13:18:50.787Z,3.10
2019-03-26T13:19:50.730Z,3.00
2019-03-26T13:21:43.503Z,2.80
2019-03-26T13:22:43.459Z,3.30
2019-03-26T13:24:36.300Z,3.20
2019-03-26T13:25:36.438Z,2.90
2019-03-26T13:27:29.021Z,2.80
2019-03-26T13:28:29.070Z,3.00
2019-03-26T13:30:21.990Z,2.90
2019-03-26T13:31:21.697Z,2.90
2019-03-26T13:33:15.578Z,2.70
2019-03-26T13:34:14.975Z,2.70
2019-03-26T13:36:07.798Z,2.70
2019-03-26T13:37:07.729Z,2.80
2019-03-26T13:39:01.012Z,2.60
2019-03-26T13:40:00.964Z,2.70
2019-03-26T13:41:54.095Z,2.90
2019-03-26T13:42:54.263Z,2.50
2019-03-26T13:44:47.846Z,2.50
2019-03-26T13:45:47.795Z,3.00
2019-03-26T13:47:40.616Z,2.70
2019-03-26T13:48:40.563Z,2.50
2019-03-26T13:50:33.340Z,2.70
2019-03-26T13:51:33.291Z,2.70
2019-03-26T13:53:26.110Z,2.90
2019-03-26T13:54:26.061Z,2.80
2019-03-26T13:56:18.931Z,2.70
2019-03-26T13:57:18.862Z,3.10
2019-03-26T13:59:12.939Z,2.90
2019-03-26T14:00:12.584Z,3.00
2019-03-26T14:02:05.403Z,3.20
2019-03-26T14:03:05.333Z,2.80
2019-03-26T14:04:58.461Z,2.90
2019-03-26T14:05:58.081Z,2.90
2019-03-26T14:07:51.415Z,3.10
2019-03-26T14:08:51.352Z,3.20
2019-03-26T14:10:45.135Z,2.70
2019-03-26T14:11:45.150Z,3.00
2019-03-26T14:13:38.356Z,3.20
2019-03-26T14:14:38.282Z,2.90
2019-03-26T14:16:31.582Z,2.80
2019-03-26T14:17:31.515Z,2.70
2019-03-26T14:19:24.813Z,2.60
2019-03-26T14:20:24.737Z,2.60
2019-03-26T14:22:17.564Z,2.50
2019-03-26T14:23:17.479Z,2.90
2019-03-26T14:25:10.417Z,2.90
2019-03-26T14:26:10.411Z,3.40
2019-03-26T14:28:12.210Z,2.70
2019-03-26T14:29:03.198Z,3.00
2019-03-26T14:30:57.379Z,2.90
2019-03-26T14:31:55.990Z,3.00
2019-03-26T14:33:48.858Z,2.90
2019-03-26T14:34:51.630Z,3.10
2019-03-26T14:36:41.566Z,2.60
2019-03-26T14:37:51.170Z,2.70
2019-03-26T14:39:34.298Z,2.70
2019-03-26T14:40:34.264Z,2.60
2019-03-26T14:42:27.065Z,2.60
2019-03-26T14:43:27.012Z,2.90
2019-03-26T14:45:19.989Z,2.50
2019-03-26T14:46:19.939Z,2.80
2019-03-26T14:48:12.839Z,2.60
2019-03-26T14:49:12.726Z,2.60
2019-03-26T14:51:05.487Z,2.60
2019-03-26T14:52:05.439Z,2.50
2019-03-26T14:53:58.254Z,2.70
2019-03-26T14:54:58.185Z,2.60
2019-03-26T14:56:51.458Z,2.60
2019-03-26T14:57:51.401Z,2.60
2019-03-26T14:59:44.696Z,2.50
2019-03-26T15:00:44.626Z,2.70
2019-03-26T15:02:37.465Z,2.90
2019-03-26T15:03:37.391Z,3.00
2019-03-26T15:05:30.185Z,3.10
2019-03-26T15:06:30.134Z,2.90
2019-03-26T15:08:23.940Z,3.10
2019-03-26T15:09:23.881Z,3.20
2019-03-26T15:11:16.671Z,3.10
2019-03-26T15:12:16.647Z,3.10
2019-03-26T15:14:09.444Z,3.40
2019-03-26T15:15:09.427Z,3.40
2019-03-26T15:17:02.196Z,3.30
2019-03-26T15:18:02.151Z,3.10
2019-03-26T15:19:55.320Z,3.50
2019-03-26T15:20:54.913Z,3.10
2019-03-26T15:22:48.204Z,3.50
2019-03-26T15:23:48.157Z,3.40
2019-03-26T15:25:41.913Z,3.30
2019-03-26T15:26:41.891Z,3.30
2019-03-26T15:28:35.675Z,3.20
2019-03-26T15:29:35.574Z,3.40
2019-03-26T15:31:28.359Z,3.00
2019-03-26T15:32:28.310Z,3.60
2019-03-26T15:34:21.161Z,3.10
2019-03-26T15:35:21.052Z,3.70
2019-03-26T15:37:13.856Z,3.70
2019-03-26T15:38:13.800Z,4.10
2019-03-26T15:40:06.814Z,3.10
2019-03-26T15:41:06.742Z,3.40
2019-03-26T15:42:59.546Z,3.40
2019-03-26T15:43:59.531Z,3.50
2019-03-26T15:45:52.314Z,3.90
2019-03-26T15:46:52.239Z,3.80
2019-03-26T15:48:45.522Z,3.80
2019-03-26T15:49:45.468Z,3.60
2019-03-26T15:51:38.711Z,3.90
2019-03-26T15:52:38.639Z,3.60
2019-03-26T15:54:31.467Z,3.50
2019-03-26T15:55:31.399Z,4.80
2019-03-26T15:57:24.198Z,3.70
2019-03-26T15:58:24.144Z,3.80
2019-03-26T16:00:16.978Z,5.10
2019-03-26T16:01:16.904Z,6.10
2019-03-26T16:03:09.699Z,6.60
2019-03-26T16:04:09.653Z,7.00
2019-03-26T16:06:02.589Z,8.40
2019-03-26T16:07:02.398Z,9.10
2019-03-26T16:08:55.209Z,9.00
2019-03-26T16:09:55.150Z,8.70
2019-03-26T16:11:48.947Z,9.30
2019-03-26T16:12:48.883Z,9.30
2019-03-26T16:14:42.154Z,9.30
2019-03-26T16:15:44.902Z,9.10
2019-03-26T16:17:34.880Z,9.40
2019-03-26T16:18:34.830Z,9.10
2019-03-26T16:20:27.647Z,9.80
2019-03-26T16:21:27.595Z,9.30
2019-03-26T16:23:20.372Z,10.00
2019-03-26T16:24:20.327Z,10.50
2019-03-26T16:26:13.148Z,9.80
2019-03-26T16:27:13.074Z,10.50
2019-03-26T16:29:05.870Z,10.50
2019-03-26T16:30:05.824Z,10.40
2019-03-26T16:31:58.653Z,11.00
2019-03-26T16:32:58.572Z,10.30
2019-03-26T16:34:51.362Z,10.70
2019-03-26T16:35:51.316Z,10.40
2019-03-26T16:37:44.144Z,10.80
2019-03-26T16:38:44.061Z,10.90
2019-03-26T16:40:37.321Z,10.30
2019-03-26T16:41:48.493Z,10.40
2019-03-26T16:42:37.223Z,10.00
2019-03-26T16:43:37.175Z,10.10
2019-03-26T16:44:37.121Z,10.40
2019-03-26T16:45:37.077Z,11.20
2019-03-26T16:46:37.087Z,10.60
2019-03-26T16:47:37.020Z,10.70
2019-03-26T16:49:24.020Z,10.00
2019-03-26T18:30:09.112Z,4.70
2019-03-26T18:31:09.001Z,5.30
2019-03-26T18:33:01.988Z,5.90
2019-03-26T18:34:01.753Z,5.10
2019-03-26T18:35:54.666Z,5.10
2019-03-26T18:36:54.774Z,5.20
2019-03-26T18:37:55.234Z,5.50
2019-03-26T18:38:54.378Z,5.10
2019-03-26T18:39:54.476Z,5.40
2019-03-26T18:41:03.046Z,5.30
2019-03-26T18:41:54.223Z,5.30
2019-03-26T18:42:54.295Z,4.70
2019-03-26T18:43:54.129Z,5.10
2019-03-26T18:44:54.081Z,4.90
2019-03-26T18:45:54.030Z,5.00
2019-03-26T18:46:54.016Z,5.50
2019-03-26T18:47:53.959Z,5.10
2019-03-26T18:48:53.884Z,5.20
2019-03-26T18:49:53.846Z,4.80
2019-03-26T18:50:53.790Z,4.80
2019-03-26T18:51:53.855Z,4.90
2019-03-26T18:52:54.315Z,5.00
2019-03-26T18:53:53.872Z,5.00
2019-03-26T18:54:54.183Z,4.80
2019-03-26T18:55:55.020Z,4.50
2019-03-26T18:56:54.006Z,4.80
2019-03-26T18:57:53.468Z,5.30
2019-03-26T18:58:54.143Z,5.10
2019-03-26T18:59:54.811Z,5.20
2019-03-26T19:00:53.625Z,5.10
2019-03-26T19:01:53.433Z,5.10
2019-03-26T19:03:29.078Z,4.60
2019-03-26T19:03:53.237Z,4.50
2019-03-26T19:05:14.601Z,4.60
2019-03-26T19:05:53.095Z,5.20
2019-03-26T19:06:53.153Z,5.00
2019-03-26T19:07:53.221Z,5.10
2019-03-26T19:08:53.303Z,4.60
2019-03-26T19:09:53.533Z,4.30
2019-03-26T19:10:52.930Z,4.30
2019-03-26T19:11:52.976Z,4.80
2019-03-26T19:12:57.060Z,4.70
2019-03-26T19:13:53.454Z,4.50
2019-03-26T19:14:53.893Z,4.60
2019-03-26T19:15:52.639Z,4.00
2019-03-26T19:16:52.649Z,4.90
2019-03-26T19:17:52.545Z,4.50
2019-03-26T19:18:52.501Z,4.50
2019-03-26T19:19:52.479Z,4.70
2019-03-26T19:21:01.946Z,4.30
2019-03-26T19:21:52.387Z,4.40
2019-03-26T19:22:52.320Z,4.80
2019-03-26T19:24:03.492Z,4.30
2019-03-26T19:24:52.236Z,5.10
2019-03-26T19:25:52.183Z,4.70
2019-03-26T19:26:52.157Z,4.70
2019-03-26T19:27:52.092Z,4.20
2019-03-26T19:28:52.064Z,4.60
2019-03-26T19:29:52.039Z,4.90
2019-03-26T19:30:51.963Z,4.60
2019-03-26T19:31:51.920Z,4.40
2019-03-26T19:32:51.876Z,4.70
2019-03-26T19:33:51.830Z,4.40
2019-03-26T19:34:51.852Z,4.10
2019-03-26T19:35:51.728Z,4.30
2019-03-26T19:36:51.832Z,4.00
2019-03-26T19:37:51.678Z,4.70
2019-03-26T19:38:51.657Z,4.40
2019-03-26T19:39:51.581Z,4.10
2019-03-26T19:40:51.538Z,4.10
2019-03-26T19:41:51.457Z,4.60
2019-03-26T19:42:51.412Z,4.00
2019-03-26T19:43:51.470Z,4.40
2019-03-26T19:44:51.408Z,4.80
2019-03-26T19:45:51.330Z,4.10
2019-03-26T19:46:51.251Z,4.40
2019-03-26T19:47:51.238Z,4.50
2019-03-26T19:48:51.235Z,4.50
2019-03-26T19:49:51.099Z,4.30
2019-03-26T19:50:51.053Z,3.80
2019-03-26T19:51:51.006Z,4.60
2019-03-26T19:52:50.962Z,4.20
2019-03-26T19:53:50.916Z,4.00
2019-03-26T19:54:51.819Z,4.40
2019-03-26T19:55:50.918Z,4.00
2019-03-26T19:56:50.799Z,4.40
2019-03-26T19:57:50.737Z,4.00
2019-03-26T19:58:50.766Z,3.90
2019-03-26T19:59:50.644Z,4.40
2019-03-26T20:00:50.805Z,4.60
2019-03-26T20:01:52.124Z,4.00
2019-03-26T20:02:50.515Z,4.00
2019-03-26T20:03:50.476Z,4.20
2019-03-26T20:04:50.449Z,4.00
2019-03-26T20:05:50.435Z,3.80
2019-03-26T20:06:51.135Z,3.90
2019-03-26T20:07:50.289Z,3.90
2019-03-26T20:08:50.251Z,4.10
2019-03-26T20:09:50.196Z,3.80
2019-03-26T20:10:50.153Z,3.70
2019-03-26T20:11:50.132Z,4.20
2019-03-26T20:12:50.063Z,4.20
2019-03-26T20:13:50.022Z,4.10
2019-03-26T20:14:50.039Z,3.90
2019-03-26T20:15:49.928Z,4.10
2019-03-26T20:16:49.884Z,3.80
2019-03-26T20:17:49.836Z,3.70
2019-03-26T20:18:49.792Z,3.90
2019-03-26T20:19:49.772Z,3.90
2019-03-26T20:20:49.701Z,4.10
2019-03-26T20:21:50.036Z,3.80
2019-03-26T20:22:49.648Z,3.60
2019-03-26T20:23:49.569Z,3.80
2019-03-26T20:24:49.528Z,3.60
2019-03-26T20:25:49.490Z,3.60
2019-03-26T20:26:49.430Z,3.60
2019-03-26T20:27:49.414Z,3.60
2019-03-26T20:28:49.345Z,3.90
2019-03-26T20:29:49.303Z,4.00
2019-03-26T20:30:49.253Z,3.90
2019-03-26T20:31:49.210Z,4.20
2019-03-26T20:32:49.167Z,3.90
2019-03-26T20:33:49.120Z,3.90
2019-03-26T20:34:49.079Z,4.30
2019-03-26T20:35:49.025Z,3.90
2019-03-26T20:36:48.986Z,3.40
2019-03-26T20:37:48.958Z,3.90
2019-03-26T20:38:51.369Z,4.30
2019-03-26T20:39:48.873Z,3.80
2019-03-26T20:40:48.809Z,3.70
2019-03-26T20:41:48.757Z,3.90
2019-03-26T20:42:48.716Z,3.70
2019-03-26T20:43:48.672Z,3.70
2019-03-26T20:44:48.633Z,3.90
2019-03-26T20:45:48.580Z,3.70
2019-03-26T20:46:48.536Z,4.10
2019-03-26T20:47:48.530Z,3.80
2019-03-26T20:48:48.449Z,3.90
2019-03-26T20:49:48.402Z,3.70
2019-03-26T20:50:48.358Z,3.70
2019-03-26T20:51:48.311Z,3.70
2019-03-26T20:52:48.265Z,3.90
2019-03-26T20:53:48.295Z,3.60
2019-03-26T20:54:48.179Z,4.10
2019-03-26T20:55:54.328Z,4.00
2019-03-26T20:56:48.090Z,3.80
2019-03-26T20:57:48.044Z,3.60
2019-03-26T20:58:47.998Z,3.90
2019-03-26T20:59:48.007Z,4.00
2019-03-26T21:00:47.916Z,3.60
2019-03-26T21:01:47.902Z,3.60
2019-03-26T21:02:47.871Z,4.20
2019-03-26T21:03:47.817Z,3.60
2019-03-26T21:04:47.727Z,3.80
2019-03-26T21:05:47.686Z,3.60
2019-03-26T21:06:47.671Z,3.60
2019-03-26T21:07:47.938Z,3.60
2019-03-26T21:08:47.545Z,3.70
2019-03-26T21:09:47.501Z,3.50
2019-03-26T21:10:47.465Z,3.70
2019-03-26T21:11:47.418Z,3.80
2019-03-26T21:12:47.383Z,3.10
2019-03-26T21:13:50.948Z,3.70
2019-03-26T21:14:47.377Z,3.50
2019-03-26T21:15:56.593Z,3.60
2019-03-26T21:16:47.196Z,3.70
2019-03-26T21:17:47.150Z,3.40
2019-03-26T21:18:47.101Z,3.70
2019-03-26T21:19:47.062Z,3.50
2019-03-26T21:20:47.075Z,3.60
2019-03-26T21:21:46.964Z,3.50
2019-03-26T21:22:46.938Z,3.40
2019-03-26T21:23:46.887Z,3.50
2019-03-26T21:24:46.834Z,3.60
2019-03-26T21:25:46.809Z,3.60
2019-03-26T21:26:46.746Z,3.20
2019-03-26T21:27:46.704Z,3.30
2019-03-26T21:28:46.657Z,3.70
2019-03-26T21:29:46.616Z,3.20
2019-03-26T21:30:46.582Z,3.50
2019-03-26T21:31:46.524Z,3.30
2019-03-26T21:32:46.482Z,3.30
2019-03-26T21:33:46.447Z,3.30
2019-03-26T21:34:46.516Z,3.50
2019-03-26T21:35:46.354Z,3.20
2019-03-26T21:36:46.309Z,3.10
2019-03-26T21:37:46.257Z,3.40
2019-03-26T21:38:46.209Z,3.70
2019-03-26T21:39:46.170Z,3.40
2019-03-26T21:40:47.461Z,3.20
2019-03-26T21:41:46.228Z,3.30
2019-03-26T21:42:46.026Z,3.30
2019-03-26T21:43:45.985Z,3.50
2019-03-26T21:44:45.937Z,3.40
2019-03-26T21:45:45.898Z,3.30
2019-03-26T21:46:45.845Z,3.50
2019-03-26T21:47:45.809Z,3.20
2019-03-26T21:48:45.760Z,3.00
2019-03-26T21:49:48.419Z,3.30
2019-03-26T21:50:45.674Z,3.30
2019-03-26T21:51:45.629Z,3.30
2019-03-26T21:52:45.583Z,3.40
2019-03-26T21:53:45.541Z,3.10
2019-03-26T21:54:45.501Z,3.50
2019-03-26T21:55:45.449Z,3.30
2019-03-26T21:56:45.403Z,3.20
2019-03-26T21:57:45.362Z,3.00
2019-03-26T21:58:45.337Z,3.40
2019-03-26T21:59:45.270Z,3.20
2019-03-26T22:00:45.236Z,3.10
2019-03-26T22:01:45.183Z,3.20
2019-03-26T22:02:45.141Z,3.00
2019-03-26T22:03:45.109Z,3.20
2019-03-26T22:04:45.051Z,3.30
2019-03-26T22:05:47.819Z,3.00
2019-03-26T22:06:44.957Z,3.50
2019-03-26T22:07:44.915Z,3.10
2019-03-26T22:08:44.869Z,3.00
2019-03-26T22:09:44.822Z,3.10
2019-03-26T22:10:44.779Z,3.20
2019-03-26T22:11:49.950Z,3.30
2019-03-26T22:12:44.691Z,2.90
2019-03-26T22:13:44.648Z,3.10
2019-03-26T22:14:44.635Z,3.10
2019-03-26T22:15:44.615Z,2.90
2019-03-26T22:16:44.528Z,3.00
2019-03-26T22:17:44.502Z,3.10
2019-03-26T22:18:44.421Z,3.10
2019-03-26T22:19:44.376Z,3.20
2019-03-26T22:20:44.330Z,3.30
2019-03-26T22:21:44.365Z,3.00
2019-03-26T22:22:44.242Z,3.00
2019-03-26T22:23:44.196Z,3.20
2019-03-26T22:24:44.193Z,3.00
2019-03-26T22:25:44.114Z,2.80
2019-03-26T22:26:44.062Z,2.90
2019-03-26T22:27:44.016Z,3.10
2019-03-26T22:28:43.976Z,3.10
2019-03-26T22:29:43.926Z,3.20
2019-03-26T22:30:43.882Z,3.20
2019-03-26T22:31:43.837Z,2.90
2019-03-26T22:32:43.794Z,3.20
2019-03-26T22:33:43.744Z,2.90
2019-03-26T22:34:43.707Z,3.10
2019-03-26T22:35:43.673Z,2.70
2019-03-26T22:36:43.615Z,2.90
2019-03-26T22:37:43.582Z,2.90
2019-03-26T22:38:43.600Z,3.10
2019-03-26T22:39:43.485Z,2.80
2019-03-26T22:40:43.441Z,3.00
2019-03-26T22:41:43.421Z,2.60
2019-03-26T22:42:43.346Z,2.90
2019-03-26T22:43:43.311Z,2.90
2019-03-26T22:44:43.258Z,2.80
2019-03-26T22:45:43.216Z,3.00
2019-03-26T22:46:43.168Z,2.60
2019-03-26T22:47:43.131Z,3.00
2019-03-26T22:48:43.077Z,2.90
2019-03-26T22:49:43.027Z,2.70
2019-03-26T22:50:42.982Z,2.70
2019-03-26T22:51:42.944Z,2.90
2019-03-26T22:52:42.901Z,2.80
2019-03-26T22:53:42.909Z,2.60
2019-03-26T22:54:42.878Z,2.70
2019-03-26T22:55:42.781Z,2.70
2019-03-26T22:56:42.723Z,3.10
2019-03-26T22:57:42.716Z,2.80
2019-03-26T22:58:42.632Z,2.80
2019-03-26T22:59:42.584Z,3.00
2019-03-26T23:00:42.544Z,2.60
2019-03-26T23:01:42.496Z,2.80
2019-03-26T23:02:42.452Z,2.70
2019-03-26T23:03:42.428Z,2.90
2019-03-26T23:04:42.365Z,2.70
2019-03-26T23:05:42.331Z,3.10
2019-03-26T23:06:42.278Z,2.60
2019-03-26T23:07:42.226Z,2.50
2019-03-26T23:08:42.184Z,2.70
2019-03-26T23:09:42.138Z,2.70
2019-03-26T23:10:42.094Z,2.90
2019-03-26T23:11:42.050Z,2.50
2019-03-26T23:12:42.041Z,2.70
2019-03-26T23:13:41.956Z,2.70
2019-03-26T23:14:45.261Z,2.60
2019-03-26T23:15:41.868Z,2.50
2019-03-26T23:16:41.827Z,2.90
2019-03-26T23:17:41.781Z,2.60
2019-03-26T23:18:41.736Z,3.00
2019-03-26T23:19:41.776Z,2.70
2019-03-26T23:20:41.646Z,3.00
2019-03-26T23:21:41.614Z,2.50
2019-03-26T23:22:41.557Z,3.20
2019-03-26T23:23:41.514Z,2.60
2019-03-26T23:24:41.468Z,2.90
2019-03-26T23:25:41.425Z,2.50
2019-03-26T23:26:41.390Z,2.60
2019-03-26T23:27:41.334Z,2.70
2019-03-26T23:28:41.301Z,2.70
2019-03-26T23:29:41.243Z,2.60
2019-03-26T23:30:41.195Z,2.60
2019-03-26T23:31:41.154Z,3.00
2019-03-26T23:32:41.143Z,2.80
2019-03-26T23:33:41.070Z,2.70
2019-03-26T23:34:41.017Z,2.80
2019-03-26T23:35:40.976Z,2.50
2019-03-26T23:36:40.942Z,2.40
2019-03-26T23:37:40.887Z,2.80
2019-03-26T23:38:40.851Z,2.60
2019-03-26T23:39:40.799Z,2.80
2019-03-26T23:40:40.752Z,2.90
2019-03-26T23:41:40.741Z,2.60
2019-03-26T23:42:40.655Z,2.70
2019-03-26T23:43:40.620Z,2.90
2019-03-26T23:44:40.567Z,2.80
2019-03-26T23:45:40.527Z,2.70
2019-03-26T23:46:40.483Z,2.60
2019-03-26T23:47:40.444Z,2.70
2019-03-26T23:48:40.403Z,2.70
2019-03-26T23:49:40.348Z,2.50
2019-03-26T23:50:40.323Z,2.40
2019-03-26T23:51:40.291Z,2.50
2019-03-26T23:52:40.216Z,2.70
2019-03-26T23:53:40.169Z,2.50
2019-03-26T23:54:40.124Z,2.60
2019-03-26T23:55:40.082Z,2.60
2019-03-26T23:56:40.032Z,2.40
2019-03-26T23:57:39.987Z,2.40
2019-03-26T23:58:39.971Z,2.70
2019-03-26T23:59:39.901Z,2.70
